Time;durP1;ratioP1;P1;durP2;ratioP2;P2;SDS_P1;SDS_P2;PMS_P1;PMS_P2;Temp;Humidity;BMP_temperature;BMP_pressure;BME280_temperature;BME280_humidity;BME280_pressure;Samples;Min_cycle;Max_cycle;Signal;HPM_P1;HPM_P2
2021/08/17 00:00:43;;;;;;;6.63;4.63;;;27.40;60.00;;;;;;6106727;28;82138;-63
2021/08/17 00:03:43;;;;;;;8.45;4.72;;;27.40;60.00;;;;;;6090925;28;80926;-63
2021/08/17 00:06:44;;;;;;;9.40;4.72;;;27.40;60.10;;;;;;6105582;28;80996;-63
2021/08/17 00:09:44;;;;;;;9.63;4.80;;;27.50;60.00;;;;;;6108146;28;80457;-63
2021/08/17 00:12:45;;;;;;;7.63;4.70;;;27.50;59.70;;;;;;6107358;28;80585;-63
2021/08/17 00:15:45;;;;;;;10.15;4.88;;;27.50;59.80;;;;;;6102764;28;81977;-63
2021/08/17 00:18:46;;;;;;;9.10;4.57;;;27.50;59.60;;;;;;6107303;28;80627;-62
2021/08/17 00:21:46;;;;;;;5.40;4.05;;;27.50;59.60;;;;;;6092127;28;80537;-63
2021/08/17 00:24:46;;;;;;;7.03;4.57;;;27.60;59.50;;;;;;6107448;28;81374;-63
2021/08/17 00:27:47;;;;;;;6.20;4.15;;;27.60;59.40;;;;;;6106772;28;81602;-64
2021/08/17 00:30:47;;;;;;;7.45;4.80;;;27.60;59.30;;;;;;6107431;28;81276;-63
2021/08/17 00:33:48;;;;;;;7.63;4.20;;;27.60;59.10;;;;;;6106945;28;80058;-63
2021/08/17 00:36:48;;;;;;;7.32;4.75;;;27.60;59.20;;;;;;6102797;28;83581;-63
2021/08/17 00:39:49;;;;;;;7.43;4.38;;;27.70;59.10;;;;;;6105238;28;80629;-63
2021/08/17 00:42:49;;;;;;;6.85;4.30;;;27.70;59.00;;;;;;6106586;28;81915;-63
2021/08/17 00:45:50;;;;;;;6.80;4.03;;;27.70;59.00;;;;;;6107094;28;80234;-63
2021/08/17 00:48:50;;;;;;;5.35;3.92;;;27.60;58.90;;;;;;6099603;28;80321;-63
2021/08/17 00:51:51;;;;;;;6.18;4.13;;;27.60;58.90;;;;;;6089157;28;82609;-63
2021/08/17 00:54:51;;;;;;;7.32;3.83;;;27.60;58.80;;;;;;6109106;28;80537;-63
2021/08/17 00:57:52;;;;;;;8.13;4.30;;;27.60;58.40;;;;;;6096850;28;82273;-64
2021/08/17 01:00:52;;;;;;;8.02;4.10;;;27.60;58.20;;;;;;6106643;28;81326;-63
2021/08/17 01:03:53;;;;;;;6.88;4.20;;;27.60;56.90;;;;;;6111873;28;80886;-63
2021/08/17 01:06:53;;;;;;;6.35;3.55;;;27.50;56.00;;;;;;6092701;28;81397;-64
2021/08/17 01:09:53;;;;;;;5.65;3.63;;;27.60;55.10;;;;;;6113253;28;81113;-63
2021/08/17 01:12:54;;;;;;;5.85;3.25;;;27.50;54.60;;;;;;6108007;28;80469;-64
2021/08/17 01:15:54;;;;;;;6.43;3.50;;;27.50;54.10;;;;;;6109404;28;80601;-64
2021/08/17 01:18:55;;;;;;;7.57;3.58;;;27.50;54.30;;;;;;6110093;28;80374;-63
2021/08/17 01:21:55;;;;;;;11.55;3.30;;;27.50;54.30;;;;;;6110789;28;80601;-63
2021/08/17 01:24:56;;;;;;;8.02;3.40;;;27.50;53.80;;;;;;6112575;28;81709;-66
2021/08/17 01:27:56;;;;;;;8.55;3.90;;;27.50;53.80;;;;;;6110751;28;81089;-62
2021/08/17 01:30:57;;;;;;;5.80;3.55;;;27.50;53.80;;;;;;6110726;28;83722;-62
2021/08/17 01:33:57;;;;;;;6.25;3.60;;;27.50;53.90;;;;;;6110817;28;80417;-63
2021/08/17 01:36:58;;;;;;;6.25;3.38;;;27.60;53.90;;;;;;6107455;28;80723;-63
2021/08/17 01:39:58;;;;;;;8.23;3.47;;;27.50;53.70;;;;;;6108627;28;80449;-63
2021/08/17 01:42:59;;;;;;;9.25;3.88;;;27.60;53.70;;;;;;6109091;28;80591;-63
2021/08/17 01:45:59;;;;;;;5.20;3.50;;;27.50;53.50;;;;;;6108632;28;80693;-63
2021/08/17 01:49:00;;;;;;;4.85;3.00;;;27.60;53.50;;;;;;6109142;28;81588;-62
2021/08/17 01:52:00;;;;;;;6.70;3.95;;;27.60;53.60;;;;;;6111287;28;80848;-63
2021/08/17 01:55:02;;;;;;;4.15;3.03;;;27.60;53.50;;;;;;6104016;28;80716;-62
2021/08/17 01:58:02;;;;;;;6.55;3.58;;;27.60;53.50;;;;;;6091634;28;80674;-63
2021/08/17 02:01:03;;;;;;;7.65;3.03;;;27.60;53.40;;;;;;6110006;28;81335;-63
2021/08/17 02:04:03;;;;;;;7.55;4.10;;;27.60;53.30;;;;;;6109416;28;80668;-63
2021/08/17 02:07:04;;;;;;;9.88;3.70;;;27.50;53.10;;;;;;6107674;28;80473;-62
2021/08/17 02:10:04;;;;;;;7.80;3.58;;;27.50;53.00;;;;;;6111547;28;80518;-62
2021/08/17 02:13:05;;;;;;;5.40;3.42;;;27.40;53.20;;;;;;6108028;28;80449;-63
2021/08/17 02:16:05;;;;;;;6.78;3.58;;;27.40;53.20;;;;;;6109006;28;80421;-62
2021/08/17 02:19:06;;;;;;;7.20;3.25;;;27.30;52.90;;;;;;6109861;28;81641;-62
2021/08/17 02:22:06;;;;;;;6.18;3.70;;;27.30;52.80;;;;;;6110106;28;80842;-62
2021/08/17 02:25:07;;;;;;;6.57;3.53;;;27.20;52.80;;;;;;6111029;28;80725;-62
2021/08/17 02:28:07;;;;;;;7.35;3.65;;;27.20;52.90;;;;;;6109356;28;80836;-63
2021/08/17 02:31:08;;;;;;;6.72;3.83;;;27.20;53.00;;;;;;6101237;28;80466;-63
2021/08/17 02:34:08;;;;;;;5.28;3.25;;;27.20;53.00;;;;;;6082309;28;81642;-63
2021/08/17 02:37:09;;;;;;;5.32;3.75;;;27.20;53.00;;;;;;6086131;28;81687;-64
2021/08/17 02:40:09;;;;;;;7.72;3.63;;;27.20;52.90;;;;;;6106654;28;81333;-64
2021/08/17 02:43:10;;;;;;;7.90;4.13;;;27.20;53.00;;;;;;6100714;28;80392;-64
2021/08/17 02:46:10;;;;;;;8.30;4.57;;;27.20;53.80;;;;;;6109658;28;80477;-63
2021/08/17 02:49:11;;;;;;;9.50;4.43;;;27.10;53.10;;;;;;6110606;28;80485;-63
2021/08/17 02:52:11;;;;;;;10.32;4.65;;;27.10;53.10;;;;;;6085667;28;81134;-63
2021/08/17 02:55:12;;;;;;;10.45;3.95;;;27.00;53.30;;;;;;6085120;28;80519;-64
2021/08/17 02:58:13;;;;;;;9.38;4.47;;;26.90;53.20;;;;;;6086208;28;80658;-63
2021/08/17 03:01:13;;;;;;;8.02;4.20;;;26.90;53.40;;;;;;6084698;28;80339;-63
2021/08/17 03:04:14;;;;;;;9.18;4.38;;;26.90;53.60;;;;;;6083040;28;80722;-63
2021/08/17 03:07:14;;;;;;;9.93;4.00;;;26.90;53.80;;;;;;6085915;28;80728;-63
2021/08/17 03:10:15;;;;;;;9.52;4.35;;;26.90;53.70;;;;;;6084750;28;80350;-64
2021/08/17 03:13:15;;;;;;;7.75;4.15;;;26.90;53.70;;;;;;6085762;28;80426;-63
2021/08/17 03:16:15;;;;;;;6.53;3.40;;;26.80;53.70;;;;;;6084292;28;82328;-63
2021/08/17 03:19:16;;;;;;;8.60;3.90;;;26.80;53.70;;;;;;6108728;28;81286;-63
2021/08/17 03:22:16;;;;;;;8.25;3.78;;;26.80;53.70;;;;;;6087524;28;80422;-63
2021/08/17 03:25:17;;;;;;;10.70;4.18;;;26.80;53.60;;;;;;6085891;28;80877;-63
2021/08/17 03:28:17;;;;;;;6.20;3.50;;;26.80;53.60;;;;;;6082895;28;82022;-64
2021/08/17 03:31:18;;;;;;;8.77;3.80;;;26.80;53.50;;;;;;6084830;28;80362;-64
2021/08/17 03:34:18;;;;;;;9.18;3.42;;;26.70;53.60;;;;;;6082282;28;80956;-64
2021/08/17 03:37:19;;;;;;;10.18;3.15;;;26.70;53.60;;;;;;6084700;28;80308;-64
2021/08/17 03:40:19;;;;;;;6.45;3.53;;;26.70;53.60;;;;;;6078356;28;81647;-64
2021/08/17 03:43:20;;;;;;;11.23;3.38;;;26.70;53.60;;;;;;6080921;28;81565;-63
2021/08/17 03:46:20;;;;;;;9.32;3.20;;;26.80;53.60;;;;;;6083083;28;80787;-63
2021/08/17 03:49:21;;;;;;;5.35;3.17;;;26.80;53.60;;;;;;6102130;28;80658;-64
2021/08/17 03:52:21;;;;;;;8.20;4.03;;;26.80;53.40;;;;;;6109680;28;81798;-63
2021/08/17 03:55:22;;;;;;;6.32;2.85;;;26.70;53.20;;;;;;6088870;28;81186;-63
2021/08/17 03:58:22;;;;;;;8.98;3.35;;;26.60;53.40;;;;;;6090887;28;83319;-64
2021/08/17 04:01:23;;;;;;;10.40;3.80;;;26.60;53.50;;;;;;6107119;28;80272;-64
2021/08/17 04:04:23;;;;;;;5.32;3.15;;;26.70;53.80;;;;;;6087956;28;81430;-64
2021/08/17 04:07:24;;;;;;;6.45;3.00;;;26.80;53.50;;;;;;6100124;28;80411;-64
2021/08/17 04:10:24;;;;;;;7.55;3.25;;;26.80;53.40;;;;;;6107468;28;81412;-64
2021/08/17 04:13:24;;;;;;;7.55;3.47;;;26.80;53.20;;;;;;6107709;28;80320;-63
2021/08/17 04:16:25;;;;;;;6.28;3.10;;;26.90;53.40;;;;;;6109403;28;80243;-63
2021/08/17 04:19:25;;;;;;;7.00;3.47;;;26.90;53.70;;;;;;6108740;28;80530;-63
2021/08/17 04:22:26;;;;;;;7.97;3.28;;;27.00;53.40;;;;;;6107781;28;80483;-64
2021/08/17 04:25:26;;;;;;;6.75;3.28;;;27.00;53.40;;;;;;6107451;28;85991;-64
2021/08/17 04:28:27;;;;;;;5.93;3.30;;;27.10;53.70;;;;;;6091804;28;81464;-62
2021/08/17 04:31:27;;;;;;;6.80;3.40;;;27.10;53.50;;;;;;6111086;28;80299;-63
2021/08/17 04:34:28;;;;;;;8.27;3.10;;;27.20;53.60;;;;;;6116039;28;80919;-63
2021/08/17 04:37:28;;;;;;;5.65;3.50;;;27.20;53.50;;;;;;6112205;28;80630;-64
2021/08/17 04:40:29;;;;;;;7.60;3.42;;;27.30;53.60;;;;;;6115072;28;81872;-64
2021/08/17 04:43:29;;;;;;;11.05;4.03;;;27.30;54.10;;;;;;6111807;28;81194;-64
2021/08/17 04:46:30;;;;;;;7.72;3.55;;;27.20;54.30;;;;;;6113383;28;80657;-63
2021/08/17 04:49:31;;;;;;;5.75;3.53;;;27.00;54.40;;;;;;6113362;28;80397;-63
2021/08/17 04:52:32;;;;;;;4.97;3.20;;;26.90;54.70;;;;;;6119391;28;81113;-64
2021/08/17 04:55:32;;;;;;;9.63;3.55;;;26.80;54.90;;;;;;6095346;28;83761;-64
2021/08/17 04:58:33;;;;;;;9.98;3.35;;;26.80;54.80;;;;;;6115858;28;81575;-63
2021/08/17 05:01:33;;;;;;;10.77;3.80;;;26.80;55.00;;;;;;6113942;28;80563;-63
2021/08/17 05:04:34;;;;;;;7.15;3.38;;;26.90;55.50;;;;;;6111785;28;81057;-63
2021/08/17 05:07:34;;;;;;;11.23;3.70;;;26.90;55.80;;;;;;6113152;28;80582;-62
2021/08/17 05:10:35;;;;;;;5.97;4.00;;;26.90;55.70;;;;;;6112069;28;80564;-62
2021/08/17 05:13:35;;;;;;;6.32;3.35;;;26.90;55.70;;;;;;6093893;28;81375;-63
2021/08/17 05:16:36;;;;;;;9.88;4.93;;;26.90;55.70;;;;;;6109602;28;80608;-64
2021/08/17 05:19:36;;;;;;;11.70;4.40;;;27.10;55.30;;;;;;6113438;28;80466;-64
2021/08/17 05:22:37;;;;;;;6.95;4.18;;;27.10;55.00;;;;;;6113612;28;80697;-63
2021/08/17 05:25:37;;;;;;;7.72;4.47;;;27.20;54.60;;;;;;6113332;28;82461;-64
2021/08/17 05:28:38;;;;;;;8.27;4.07;;;27.10;54.00;;;;;;6108238;28;82000;-64
2021/08/17 05:31:38;;;;;;;10.63;4.60;;;27.00;53.50;;;;;;6111384;28;80468;-64
2021/08/17 05:34:39;;;;;;;8.82;4.57;;;27.00;53.30;;;;;;6089552;28;82148;-64
2021/08/17 05:37:39;;;;;;;12.07;4.70;;;27.00;53.40;;;;;;6110100;28;80421;-65
2021/08/17 05:40:40;;;;;;;13.23;6.80;;;26.90;53.50;;;;;;6110499;28;80571;-64
2021/08/17 05:43:40;;;;;;;14.73;5.45;;;26.90;53.50;;;;;;6109075;28;81372;-65
2021/08/17 05:46:40;;;;;;;11.95;5.32;;;26.90;53.30;;;;;;6111272;28;80839;-64
2021/08/17 05:49:41;;;;;;;9.20;5.13;;;27.00;53.70;;;;;;6114549;28;80576;-64
2021/08/17 05:52:41;;;;;;;11.82;4.80;;;27.00;53.80;;;;;;6114942;28;81549;-63
2021/08/17 05:55:42;;;;;;;14.13;5.20;;;27.10;54.10;;;;;;6106359;28;80436;-63
2021/08/17 05:58:42;;;;;;;9.82;4.10;;;27.20;54.30;;;;;;6096539;28;81957;-63
2021/08/17 06:01:43;;;;;;;7.05;4.25;;;27.20;54.50;;;;;;6091320;28;80895;-64
2021/08/17 06:04:43;;;;;;;10.68;4.70;;;27.30;54.50;;;;;;6087604;28;80683;-64
2021/08/17 06:07:44;;;;;;;7.88;3.90;;;27.30;54.60;;;;;;6108877;28;81619;-64
2021/08/17 06:10:44;;;;;;;9.50;5.05;;;27.40;54.70;;;;;;6106914;28;80518;-62
2021/08/17 06:13:45;;;;;;;9.60;4.88;;;27.30;54.40;;;;;;6111286;28;80757;-66
2021/08/17 06:16:45;;;;;;;11.52;4.65;;;27.30;54.30;;;;;;6109137;28;81174;-63
2021/08/17 06:19:46;;;;;;;39.53;5.47;;;27.30;54.30;;;;;;6109262;28;81008;-65
2021/08/17 06:22:46;;;;;;;6.18;4.25;;;27.30;54.20;;;;;;6112389;28;81071;-65
2021/08/17 06:25:47;;;;;;;6.57;4.53;;;27.30;53.90;;;;;;6117213;28;82680;-62
2021/08/17 06:28:47;;;;;;;7.28;3.83;;;27.30;53.50;;;;;;6097007;28;80526;-63
2021/08/17 06:31:49;;;;;;;6.88;3.45;;;27.20;51.70;;;;;;6112861;28;80198;-64
2021/08/17 06:34:49;;;;;;;8.73;3.60;;;27.10;50.10;;;;;;6110221;28;80650;-64
2021/08/17 06:37:50;;;;;;;8.00;3.55;;;27.10;50.20;;;;;;6114089;28;81163;-64
2021/08/17 06:40:50;;;;;;;6.40;4.03;;;27.10;50.20;;;;;;6109012;28;80524;-63
2021/08/17 06:43:51;;;;;;;7.05;2.75;;;27.10;50.40;;;;;;6099734;28;82438;-62
2021/08/17 06:46:51;;;;;;;5.63;2.88;;;27.10;49.30;;;;;;6113707;28;80681;-61
2021/08/17 06:49:52;;;;;;;5.78;2.55;;;27.10;49.10;;;;;;6109701;28;80530;-62
2021/08/17 06:52:52;;;;;;;7.25;2.58;;;27.10;49.80;;;;;;6113460;28;81603;-62
2021/08/17 06:55:53;;;;;;;4.88;2.95;;;27.10;50.00;;;;;;6114721;28;80520;-64
2021/08/17 06:58:53;;;;;;;9.93;3.03;;;27.10;50.20;;;;;;6114770;28;81074;-63
2021/08/17 07:01:53;;;;;;;6.60;4.05;;;27.20;50.20;;;;;;6113405;28;80759;-63
2021/08/17 07:04:54;;;;;;;17.70;3.30;;;27.20;50.50;;;;;;6112487;28;80906;-65
2021/08/17 07:07:54;;;;;;;5.03;3.03;;;27.20;50.80;;;;;;6115461;28;80446;-63
2021/08/17 07:10:55;;;;;;;10.32;3.88;;;27.20;50.80;;;;;;6117575;28;83951;-62
2021/08/17 07:13:55;;;;;;;5.43;3.22;;;27.20;50.50;;;;;;6113473;28;81521;-62
2021/08/17 07:16:56;;;;;;;8.52;3.28;;;27.20;50.60;;;;;;6115910;28;80614;-62
2021/08/17 07:19:56;;;;;;;8.32;3.25;;;27.20;50.40;;;;;;6111853;28;81218;-62
2021/08/17 07:22:57;;;;;;;7.03;3.63;;;27.20;50.50;;;;;;6108337;28;83135;-64
2021/08/17 07:25:57;;;;;;;9.48;3.10;;;27.20;50.60;;;;;;6107913;28;82006;-64
2021/08/17 07:28:58;;;;;;;4.35;3.10;;;27.20;50.30;;;;;;6121439;28;81347;-62
2021/08/17 07:31:58;;;;;;;8.23;3.83;;;27.20;50.50;;;;;;6112507;28;80359;-63
2021/08/17 07:34:59;;;;;;;8.45;4.25;;;27.20;50.50;;;;;;6111642;28;84937;-65
2021/08/17 07:38:00;;;;;;;9.45;4.28;;;27.10;50.20;;;;;;6111653;28;80428;-65
2021/08/17 07:41:01;;;;;;;8.32;3.47;;;27.10;50.20;;;;;;6108248;28;81675;-62
2021/08/17 07:44:01;;;;;;;5.53;3.58;;;27.10;50.10;;;;;;6110195;28;80616;-64
2021/08/17 07:47:02;;;;;;;6.25;3.92;;;27.00;50.30;;;;;;6108449;28;81875;-65
2021/08/17 07:50:03;;;;;;;10.52;3.65;;;26.90;49.60;;;;;;6113346;28;80394;-63
2021/08/17 07:53:03;;;;;;;8.50;3.58;;;26.90;49.30;;;;;;6108217;28;80212;-63
2021/08/17 07:56:04;;;;;;;6.80;4.18;;;26.90;49.20;;;;;;6108241;28;81400;-63
2021/08/17 07:59:04;;;;;;;10.38;3.47;;;26.90;48.70;;;;;;6123473;28;81221;-62
2021/08/17 08:02:05;;;;;;;6.47;4.00;;;26.80;48.70;;;;;;6111554;28;80611;-63
2021/08/17 08:05:05;;;;;;;4.88;2.90;;;26.70;47.90;;;;;;6099338;28;82550;-63
2021/08/17 08:08:06;;;;;;;6.70;3.30;;;26.70;47.80;;;;;;6100105;28;80696;-64
2021/08/17 08:11:06;;;;;;;5.07;3.10;;;26.70;47.20;;;;;;6091635;28;81794;-62
2021/08/17 08:14:06;;;;;;;5.88;2.25;;;26.70;47.30;;;;;;6115974;28;80388;-62
2021/08/17 08:17:07;;;;;;;3.35;2.40;;;26.70;47.50;;;;;;6116796;28;81628;-62
2021/08/17 08:20:07;;;;;;;5.57;2.22;;;26.70;47.60;;;;;;6108310;28;80597;-63
2021/08/17 08:23:09;;;;;;;3.00;1.65;;;26.70;47.70;;;;;;6114217;28;80480;-63
2021/08/17 08:26:09;;;;;;;7.50;2.05;;;26.70;47.40;;;;;;6108769;28;82855;-63
2021/08/17 08:29:09;;;;;;;6.30;2.42;;;26.70;47.30;;;;;;6093053;28;80771;-62
2021/08/17 08:32:10;;;;;;;8.38;2.00;;;26.70;46.60;;;;;;6097138;28;80348;-64
2021/08/17 08:35:11;;;;;;;6.38;2.60;;;26.70;46.60;;;;;;6118339;28;80542;-62
2021/08/17 08:38:11;;;;;;;6.18;2.95;;;26.80;46.50;;;;;;6119926;28;81463;-62
2021/08/17 08:41:16;;;;;;;5.88;2.42;;;26.90;46.40;;;;;;6112864;28;80778;-62
2021/08/17 08:44:16;;;;;;;6.78;3.00;;;26.90;46.10;;;;;;6112374;28;80891;-63
2021/08/17 08:47:17;;;;;;;5.28;2.05;;;26.90;45.90;;;;;;6114595;28;81633;-63
2021/08/17 08:50:17;;;;;;;5.85;2.30;;;26.90;45.70;;;;;;6093382;28;83023;-63
2021/08/17 08:53:19;;;;;;;5.15;2.72;;;26.90;45.10;;;;;;6098425;28;82074;-63
2021/08/17 08:56:20;;;;;;;5.55;2.50;;;26.90;45.10;;;;;;6096073;28;81653;-63
2021/08/17 08:59:20;;;;;;;5.68;2.42;;;26.90;45.80;;;;;;6115178;28;83275;-62
2021/08/17 09:02:21;;;;;;;3.92;2.53;;;26.90;44.60;;;;;;6115890;28;80529;-63
2021/08/17 09:05:22;;;;;;;9.63;2.45;;;26.90;44.50;;;;;;6112164;28;81463;-63
2021/08/17 09:08:23;;;;;;;4.90;3.10;;;26.90;45.00;;;;;;6114008;28;80596;-62
2021/08/17 09:11:25;;;;;;;5.38;3.00;;;26.90;45.00;;;;;;6118058;28;83504;-62
2021/08/17 09:14:25;;;;;;;6.40;2.97;;;26.90;45.10;;;;;;6113638;28;81043;-63
2021/08/17 09:17:26;;;;;;;5.97;2.58;;;26.90;44.80;;;;;;6113773;28;80712;-62
2021/08/17 09:20:26;;;;;;;6.53;3.10;;;26.90;44.80;;;;;;6112768;28;80232;-63
2021/08/17 09:23:27;;;;;;;8.38;2.80;;;26.90;45.00;;;;;;6095124;28;83325;-62
2021/08/17 09:26:29;;;;;;;4.88;2.60;;;26.90;43.90;;;;;;6113158;28;80687;-63
2021/08/17 09:29:29;;;;;;;5.00;3.00;;;26.90;44.10;;;;;;6110408;28;80568;-63
2021/08/17 09:32:30;;;;;;;6.38;2.50;;;26.90;44.00;;;;;;6117056;28;80445;-62
2021/08/17 09:35:30;;;;;;;7.40;3.35;;;27.00;44.20;;;;;;6094363;28;83332;-62
2021/08/17 09:38:31;;;;;;;7.03;3.35;;;26.90;44.40;;;;;;6113861;28;81195;-63
2021/08/17 09:41:32;;;;;;;6.30;2.95;;;26.80;43.90;;;;;;6111656;28;83099;-62
2021/08/17 09:44:32;;;;;;;8.73;3.17;;;26.80;44.10;;;;;;6115635;28;80145;-62
2021/08/17 09:47:33;;;;;;;8.15;3.25;;;26.70;43.70;;;;;;6114124;28;81380;-62
2021/08/17 09:50:33;;;;;;;6.65;3.55;;;26.60;43.80;;;;;;6118632;28;80354;-63
2021/08/17 09:53:34;;;;;;;9.27;3.67;;;26.70;44.50;;;;;;6117008;28;80176;-62
2021/08/17 09:56:34;;;;;;;7.68;3.30;;;26.70;44.20;;;;;;6101478;28;81446;-62
2021/08/17 09:59:35;;;;;;;6.85;3.40;;;26.70;43.90;;;;;;6117326;28;81441;-62
2021/08/17 10:02:35;;;;;;;6.68;2.72;;;26.70;44.00;;;;;;6104452;28;81390;-63
2021/08/17 10:05:36;;;;;;;5.28;2.80;;;26.70;43.90;;;;;;6111444;28;81806;-63
2021/08/17 10:08:36;;;;;;;8.38;3.40;;;26.70;44.30;;;;;;6119723;28;81081;-63
2021/08/17 10:11:37;;;;;;;6.35;2.60;;;26.70;43.70;;;;;;6111251;28;80807;-62
2021/08/17 10:14:37;;;;;;;6.03;3.13;;;26.80;44.00;;;;;;6111121;28;81751;-62
2021/08/17 10:17:38;;;;;;;6.38;3.00;;;26.80;44.10;;;;;;6111701;28;80443;-62
2021/08/17 10:20:38;;;;;;;6.55;2.58;;;26.80;44.40;;;;;;6109419;28;81023;-63
2021/08/17 10:23:39;;;;;;;3.75;2.70;;;26.80;44.40;;;;;;6115959;28;80344;-63
2021/08/17 10:26:39;;;;;;;4.93;2.90;;;26.90;44.70;;;;;;6117333;28;79981;-63
2021/08/17 10:29:40;;;;;;;6.00;2.65;;;26.90;44.60;;;;;;6106311;28;80374;-63
2021/08/17 10:32:40;;;;;;;6.45;2.90;;;26.90;44.80;;;;;;6110200;28;81457;-62
2021/08/17 10:35:41;;;;;;;5.97;2.72;;;26.90;45.30;;;;;;6097200;28;80458;-62
2021/08/17 10:38:41;;;;;;;7.32;3.20;;;26.90;45.10;;;;;;6107947;28;81054;-62
2021/08/17 10:41:42;;;;;;;5.47;2.60;;;26.90;45.00;;;;;;6092538;28;80945;-62
2021/08/17 10:44:42;;;;;;;8.93;2.95;;;26.90;45.30;;;;;;6109233;28;80272;-63
2021/08/17 10:47:43;;;;;;;6.13;2.40;;;26.90;45.40;;;;;;6112534;28;80518;-63
2021/08/17 10:50:43;;;;;;;4.82;2.63;;;27.00;46.00;;;;;;6111047;28;80485;-62
2021/08/17 10:53:44;;;;;;;6.45;3.20;;;27.00;46.10;;;;;;6113058;28;80874;-63
2021/08/17 10:56:45;;;;;;;10.30;6.97;;;27.00;45.90;;;;;;6109649;28;80384;-63
2021/08/17 10:59:45;;;;;;;13.98;7.03;;;27.00;46.30;;;;;;6117992;28;80707;-63
2021/08/17 11:02:46;;;;;;;15.13;9.07;;;27.10;46.40;;;;;;6113183;28;81649;-63
2021/08/17 11:05:46;;;;;;;12.23;7.55;;;27.10;46.30;;;;;;6113116;28;81574;-63
2021/08/17 11:08:46;;;;;;;14.00;8.85;;;27.10;46.50;;;;;;6111491;28;80632;-63
2021/08/17 11:11:47;;;;;;;17.83;9.90;;;27.10;46.90;;;;;;6108524;28;80974;-63
2021/08/17 11:14:47;;;;;;;12.75;8.98;;;27.20;47.10;;;;;;6111133;28;80528;-63
2021/08/17 11:17:48;;;;;;;19.50;9.10;;;27.10;46.70;;;;;;6111756;28;81544;-63
2021/08/17 11:20:48;;;;;;;12.05;7.40;;;27.20;46.60;;;;;;6107968;28;80723;-63
2021/08/17 11:23:49;;;;;;;13.07;7.18;;;27.20;46.90;;;;;;6110605;28;80499;-62
2021/08/17 11:26:49;;;;;;;11.35;6.80;;;27.20;47.00;;;;;;6109744;28;80758;-63
2021/08/17 11:29:51;;;;;;;11.85;6.70;;;27.20;46.70;;;;;;6108323;28;80814;-63
2021/08/17 11:32:51;;;;;;;12.43;5.90;;;27.20;46.80;;;;;;6111333;28;80009;-63
2021/08/17 11:35:52;;;;;;;9.95;5.38;;;27.20;46.60;;;;;;6109663;28;81249;-62
2021/08/17 11:38:52;;;;;;;9.45;5.22;;;27.20;46.60;;;;;;6111750;28;80314;-63
2021/08/17 11:41:53;;;;;;;8.13;5.18;;;27.20;46.50;;;;;;6115225;28;80762;-62
2021/08/17 11:44:53;;;;;;;8.25;4.95;;;27.20;46.90;;;;;;6111471;28;80425;-62
2021/08/17 11:47:55;;;;;;;7.13;4.10;;;27.20;46.30;;;;;;6109021;28;80895;-62
2021/08/17 11:50:55;;;;;;;5.43;4.10;;;27.20;46.10;;;;;;6110406;28;80691;-62
2021/08/17 11:53:56;;;;;;;7.40;4.30;;;27.20;46.10;;;;;;6108479;28;81558;-62
2021/08/17 11:56:56;;;;;;;6.07;3.70;;;27.30;46.20;;;;;;6099291;28;81444;-62
2021/08/17 11:59:57;;;;;;;8.68;3.60;;;27.30;46.30;;;;;;6087245;28;81144;-63
2021/08/17 12:02:57;;;;;;;6.57;3.70;;;27.30;46.00;;;;;;6097364;28;81010;-62
2021/08/17 12:05:58;;;;;;;10.93;3.60;;;27.30;46.20;;;;;;6108751;28;82511;-62
2021/08/17 12:08:58;;;;;;;4.72;3.38;;;27.30;46.60;;;;;;6112354;28;80654;-62
2021/08/17 12:11:59;;;;;;;6.47;3.30;;;27.30;46.40;;;;;;6107261;28;80447;-62
2021/08/17 12:14:59;;;;;;;6.55;3.85;;;27.30;46.20;;;;;;6099072;28;81819;-62
2021/08/17 12:18:00;;;;;;;7.60;3.35;;;27.30;46.30;;;;;;6083685;28;80912;-62
2021/08/17 12:21:00;;;;;;;6.20;3.38;;;27.30;46.10;;;;;;6085085;28;80759;-62
2021/08/17 12:24:03;;;;;;;5.20;2.50;;;27.30;46.10;;;;;;6085405;28;81830;-62
2021/08/17 12:27:04;;;;;;;5.68;3.05;;;27.30;46.40;;;;;;6084547;28;80813;-62
2021/08/17 12:30:04;;;;;;;6.70;3.25;;;27.30;46.10;;;;;;6083372;28;80763;-62
2021/08/17 12:33:04;;;;;;;3.85;2.85;;;27.30;46.00;;;;;;6086503;28;82398;-62
2021/08/17 12:36:05;;;;;;;5.68;2.75;;;27.40;46.00;;;;;;6084582;28;80552;-62
2021/08/17 12:39:05;;;;;;;6.05;2.97;;;27.40;45.90;;;;;;6083989;28;81042;-62
2021/08/17 12:42:06;;;;;;;4.25;2.50;;;27.40;45.90;;;;;;6074508;28;81807;-62
2021/08/17 12:45:07;;;;;;;4.53;2.67;;;27.40;45.60;;;;;;6073028;28;80598;-63
2021/08/17 12:48:07;;;;;;;4.15;2.35;;;27.40;45.40;;;;;;6075907;28;81057;-62
2021/08/17 12:51:08;;;;;;;4.35;2.30;;;27.40;45.60;;;;;;6080229;28;81075;-63
2021/08/17 12:54:08;;;;;;;4.93;2.53;;;27.40;45.80;;;;;;6106244;28;80399;-63
2021/08/17 12:57:08;;;;;;;5.55;2.92;;;27.40;46.00;;;;;;6100749;28;81522;-62
2021/08/17 13:00:09;;;;;;;3.97;2.40;;;27.40;46.10;;;;;;6122604;28;80367;-63
2021/08/17 13:03:10;;;;;;;6.93;2.85;;;27.40;46.10;;;;;;6115944;28;80906;-63
2021/08/17 13:06:11;;;;;;;3.88;2.50;;;27.40;46.30;;;;;;6099182;28;80637;-63
2021/08/17 13:09:11;;;;;;;5.35;2.78;;;27.40;46.80;;;;;;6110871;28;81370;-63
2021/08/17 13:12:12;;;;;;;4.20;2.92;;;27.40;46.80;;;;;;6116240;28;82100;-62
2021/08/17 13:15:12;;;;;;;6.70;2.10;;;27.40;46.40;;;;;;6112962;28;80511;-63
2021/08/17 13:18:13;;;;;;;7.75;2.70;;;27.40;46.30;;;;;;6109163;28;81220;-63
2021/08/17 13:21:13;;;;;;;3.78;2.47;;;27.40;46.40;;;;;;6102239;28;80168;-62
2021/08/17 13:24:15;;;;;;;4.82;2.63;;;27.40;46.00;;;;;;6110485;28;80438;-63
2021/08/17 13:27:15;;;;;;;6.53;2.85;;;27.50;46.00;;;;;;6118716;28;81082;-63
2021/08/17 13:30:16;;;;;;;3.95;2.75;;;27.50;45.90;;;;;;6084998;28;80534;-63
2021/08/17 13:33:16;;;;;;;3.50;2.47;;;27.50;45.80;;;;;;6098846;28;80496;-63
2021/08/17 13:36:17;;;;;;;5.13;2.70;;;27.40;46.10;;;;;;6113189;28;80989;-63
2021/08/17 13:39:17;;;;;;;3.28;2.67;;;27.50;45.80;;;;;;6112572;28;80476;-63
2021/08/17 13:42:17;;;;;;;2.80;2.22;;;27.50;45.80;;;;;;6083583;28;83252;-63
2021/08/17 13:45:18;;;;;;;4.68;3.05;;;27.40;45.20;;;;;;6105677;28;80445;-63
2021/08/17 13:48:19;;;;;;;3.95;2.50;;;27.40;45.40;;;;;;6114707;28;81964;-63
2021/08/17 13:51:19;;;;;;;4.25;2.30;;;27.30;44.40;;;;;;6101718;28;80999;-62
2021/08/17 13:54:20;;;;;;;4.03;2.53;;;27.30;44.30;;;;;;6085856;28;80307;-62
2021/08/17 13:57:20;;;;;;;4.05;2.40;;;27.30;43.70;;;;;;6086791;28;81736;-63
2021/08/17 14:00:21;;;;;;;6.32;2.60;;;27.20;43.40;;;;;;6086896;28;81578;-61
2021/08/17 14:03:21;;;;;;;4.60;2.40;;;27.10;43.40;;;;;;6093001;28;81500;-62
2021/08/17 14:06:22;;;;;;;4.10;2.58;;;27.00;42.60;;;;;;6082920;28;80398;-62
2021/08/17 14:09:22;;;;;;;3.33;2.42;;;27.00;42.80;;;;;;6097379;28;80471;-62
2021/08/17 14:12:23;;;;;;;5.55;3.00;;;26.90;42.80;;;;;;6075583;28;80780;-63
2021/08/17 14:15:23;;;;;;;4.90;2.70;;;26.90;42.70;;;;;;6095693;28;80793;-63
2021/08/17 14:18:23;;;;;;;4.90;2.95;;;26.90;42.40;;;;;;6092529;28;80718;-63
2021/08/17 14:21:24;;;;;;;4.18;3.00;;;26.90;42.20;;;;;;6095837;28;81089;-63
2021/08/17 14:24:24;;;;;;;4.47;2.72;;;26.90;42.80;;;;;;6099331;28;81273;-63
2021/08/17 14:27:25;;;;;;;3.80;2.35;;;26.80;42.70;;;;;;6105763;28;86517;-62
2021/08/17 14:30:25;;;;;;;3.80;2.92;;;26.80;42.80;;;;;;6104973;28;81224;-63
2021/08/17 14:33:26;;;;;;;4.43;2.30;;;26.80;42.90;;;;;;6096032;28;80483;-63
2021/08/17 14:36:26;;;;;;;4.25;2.78;;;26.80;43.20;;;;;;6108034;28;82691;-63
2021/08/17 14:39:27;;;;;;;4.75;2.60;;;26.80;42.80;;;;;;6092838;28;80646;-64
2021/08/17 14:42:32;;;;;;;5.30;2.67;;;26.80;43.00;;;;;;6110505;28;80184;-63
2021/08/17 14:45:33;;;;;;;4.60;2.60;;;26.70;42.90;;;;;;6117890;28;80267;-63
2021/08/17 14:48:33;;;;;;;3.95;2.40;;;26.80;43.20;;;;;;6094759;28;83694;-63
2021/08/17 14:51:33;;;;;;;3.72;2.50;;;26.70;43.00;;;;;;6115819;28;80987;-63
2021/08/17 14:54:34;;;;;;;5.70;2.60;;;26.70;42.70;;;;;;6103728;28;80397;-62
2021/08/17 14:57:34;;;;;;;9.00;3.70;;;26.80;43.30;;;;;;6111870;28;81305;-62
2021/08/17 15:00:35;;;;;;;6.05;3.10;;;26.70;43.60;;;;;;6104805;28;81697;-63
2021/08/17 15:03:35;;;;;;;5.22;3.13;;;26.80;44.00;;;;;;6109271;28;80891;-63
2021/08/17 15:06:36;;;;;;;4.80;3.13;;;26.70;43.40;;;;;;6107226;28;81173;-63
2021/08/17 15:09:39;;;;;;;5.95;3.08;;;26.70;43.20;;;;;;6092213;28;82224;-64
2021/08/17 15:12:40;;;;;;;3.45;2.70;;;26.70;43.60;;;;;;6110220;28;81339;-63
2021/08/17 15:15:40;;;;;;;4.70;2.83;;;26.70;43.30;;;;;;6109720;28;80718;-63
2021/08/17 15:18:41;;;;;;;8.23;3.08;;;26.70;43.80;;;;;;6100041;28;80706;-61
2021/08/17 15:21:41;;;;;;;5.57;2.75;;;26.80;44.50;;;;;;6093725;28;81180;-62
2021/08/17 15:24:42;;;;;;;8.63;3.30;;;26.80;44.00;;;;;;6088236;28;81496;-62
2021/08/17 15:27:42;;;;;;;4.57;3.15;;;26.90;44.50;;;;;;6085733;28;80347;-63
2021/08/17 15:30:43;;;;;;;5.20;3.20;;;26.80;44.00;;;;;;6084976;28;80395;-63
2021/08/17 15:33:43;;;;;;;7.07;4.00;;;26.80;43.90;;;;;;6101836;28;81734;-63
2021/08/17 15:36:44;;;;;;;6.03;3.35;;;26.80;44.00;;;;;;6092057;28;83010;-62